PSP weather

Palm Springs International Airport
Palm Springs, California, United States

Public forecast

Using degrees Fahrenheit for public forecast. Weather courtesy of forecast.io.

Current aviation weather report (METAR) for Palm Springs International Airport

Retrieved 2019/12/11 09:53 UTC (1 hour ago):

KPSP 110953Z AUTO 32005KT 10SM CLR 12/03 A3020 RMK AO2 SLP227 T01170028

Aviation forecast (TAF) for Palm Springs International Airport

Retrieved 2019/12/11 06:27 UTC (5 hours ago):

TAF KPSP 110524Z 1106/1206 VRB04KT P6SM SCT250